createdAt,value
2019-05-19T00:00:41.493Z,15.63
2019-05-19T00:01:41.556Z,15.63
2019-05-19T00:02:41.550Z,15.60
2019-05-19T00:03:41.566Z,15.60
2019-05-19T00:04:41.596Z,15.60
2019-05-19T00:05:41.620Z,15.60
2019-05-19T00:06:41.654Z,15.59
2019-05-19T00:07:41.675Z,15.60
2019-05-19T00:08:41.709Z,15.56
2019-05-19T00:09:41.739Z,15.63
2019-05-19T00:10:41.762Z,15.56
2019-05-19T00:11:41.786Z,15.59
2019-05-19T00:12:41.816Z,15.55
2019-05-19T00:13:41.847Z,15.62
2019-05-19T00:14:41.872Z,15.59
2019-05-19T00:16:41.932Z,15.55
2019-05-19T00:17:41.958Z,15.45
2019-05-19T00:18:41.982Z,15.53
2019-05-19T00:19:42.015Z,15.43
2019-05-19T00:20:42.040Z,15.45
2019-05-19T00:21:42.079Z,15.47
2019-05-19T00:22:42.093Z,15.45
2019-05-19T00:23:42.128Z,15.43
2019-05-19T00:24:42.151Z,15.31
2019-05-19T00:25:42.180Z,15.31
2019-05-19T00:26:42.206Z,15.33
2019-05-19T00:27:48.501Z,15.33
2019-05-19T00:28:42.270Z,15.33
2019-05-19T00:29:42.288Z,15.31
2019-05-19T00:30:42.327Z,15.27
2019-05-19T00:31:42.343Z,15.33
2019-05-19T00:32:42.432Z,15.38
2019-05-19T00:34:42.444Z,15.37
2019-05-19T00:35:42.461Z,15.31
2019-05-19T00:36:42.490Z,15.37
2019-05-19T00:37:42.511Z,15.30
2019-05-19T00:38:42.540Z,15.34
2019-05-19T00:39:42.575Z,15.33
2019-05-19T00:40:42.593Z,15.27
2019-05-19T00:41:42.631Z,15.33
2019-05-19T00:42:42.649Z,15.33
2019-05-19T00:43:42.682Z,15.30
2019-05-19T00:44:42.713Z,15.27
2019-05-19T00:45:42.732Z,15.22
2019-05-19T00:46:42.760Z,15.23
2019-05-19T00:47:42.992Z,15.26
2019-05-19T00:48:42.816Z,15.30
2019-05-19T00:49:42.843Z,15.27
2019-05-19T00:50:42.879Z,15.23
2019-05-19T00:51:42.899Z,15.30
2019-05-19T00:52:42.924Z,15.19
2019-05-19T00:53:42.955Z,15.20
2019-05-19T00:54:42.983Z,15.20
2019-05-19T00:55:43.015Z,15.23
2019-05-19T00:56:43.038Z,15.15
2019-05-19T00:57:43.066Z,15.13
2019-05-19T00:58:43.097Z,15.13
2019-05-19T00:59:43.119Z,15.13
2019-05-19T01:00:43.148Z,15.05
2019-05-19T01:01:43.175Z,15.15
2019-05-19T01:02:43.220Z,15.10
2019-05-19T01:03:43.240Z,15.16
2019-05-19T01:04:43.256Z,15.04
2019-05-19T01:05:43.286Z,15.15
2019-05-19T01:06:43.314Z,15.12
2019-05-19T01:07:43.344Z,15.16
2019-05-19T01:08:43.369Z,15.01
2019-05-19T01:09:43.401Z,15.08
2019-05-19T01:10:43.437Z,15.07
2019-05-19T01:11:43.452Z,15.12
2019-05-19T01:12:43.480Z,15.02
2019-05-19T01:13:43.509Z,15.07
2019-05-19T01:14:43.541Z,15.01
2019-05-19T01:15:43.564Z,15.02
2019-05-19T01:16:43.595Z,15.00
2019-05-19T01:17:43.623Z,15.02
2019-05-19T01:18:43.653Z,14.93
2019-05-19T01:19:55.228Z,15.01
2019-05-19T01:20:43.697Z,14.97
2019-05-19T01:21:43.726Z,14.95
2019-05-19T01:22:43.756Z,14.94
2019-05-19T01:23:43.781Z,14.97
2019-05-19T01:24:43.827Z,14.87
2019-05-19T01:25:43.837Z,15.00
2019-05-19T01:26:43.865Z,14.85
2019-05-19T01:27:43.897Z,14.89
2019-05-19T01:28:43.921Z,14.89
2019-05-19T01:29:43.951Z,14.95
2019-05-19T01:30:43.983Z,14.87
2019-05-19T01:31:44.005Z,14.86
2019-05-19T01:32:44.030Z,14.86
2019-05-19T01:33:44.058Z,14.79
2019-05-19T01:34:44.085Z,14.85
2019-05-19T01:35:44.120Z,14.83
2019-05-19T01:36:44.146Z,14.82
2019-05-19T01:37:44.170Z,14.82
2019-05-19T01:38:44.196Z,14.75
2019-05-19T01:39:44.242Z,14.83
2019-05-19T01:40:44.249Z,14.77
2019-05-19T01:41:44.283Z,14.79
2019-05-19T01:42:44.516Z,14.75
2019-05-19T01:43:44.333Z,14.71
2019-05-19T01:44:44.360Z,14.75
2019-05-19T01:45:44.387Z,14.80
2019-05-19T01:46:44.417Z,14.77
2019-05-19T01:47:44.441Z,14.77
2019-05-19T01:48:44.471Z,14.74
2019-05-19T01:49:44.499Z,14.77
2019-05-19T01:50:44.530Z,14.79
2019-05-19T01:51:44.555Z,14.74
2019-05-19T01:52:44.584Z,14.75
2019-05-19T01:53:44.609Z,14.77
2019-05-19T01:54:44.634Z,14.70
2019-05-19T01:55:44.660Z,14.74
2019-05-19T01:56:44.688Z,14.75
2019-05-19T01:57:44.720Z,14.70
2019-05-19T01:58:44.743Z,14.70
2019-05-19T01:59:44.780Z,14.64
2019-05-19T02:00:44.814Z,14.69
2019-05-19T02:01:44.828Z,14.66
2019-05-19T02:02:44.855Z,14.61
2019-05-19T02:03:44.885Z,14.66
2019-05-19T02:04:44.910Z,14.63
2019-05-19T02:05:44.935Z,14.60
2019-05-19T02:06:44.968Z,14.64
2019-05-19T02:07:44.992Z,14.60
2019-05-19T02:08:45.023Z,14.57
2019-05-19T02:09:45.046Z,14.57
2019-05-19T02:10:45.078Z,14.61
2019-05-19T02:11:45.099Z,14.53
2019-05-19T02:12:45.135Z,14.51
2019-05-19T02:13:45.154Z,14.57
2019-05-19T02:14:45.189Z,14.51
2019-05-19T02:15:45.218Z,14.48
2019-05-19T02:16:45.239Z,14.42
2019-05-19T02:17:45.264Z,14.48
2019-05-19T02:18:45.294Z,14.42
2019-05-19T02:19:45.321Z,14.45
2019-05-19T02:20:45.350Z,14.51
2019-05-19T02:21:45.379Z,14.45
2019-05-19T02:22:45.414Z,14.51
2019-05-19T02:23:45.430Z,14.48
2019-05-19T02:24:45.454Z,14.46
2019-05-19T02:25:45.483Z,14.49
2019-05-19T02:26:45.515Z,14.39
2019-05-19T02:27:45.542Z,14.44
2019-05-19T02:28:45.569Z,14.33
2019-05-19T02:29:45.599Z,14.31
2019-05-19T02:30:45.623Z,14.31
2019-05-19T02:31:45.649Z,14.33
2019-05-19T02:32:45.675Z,14.31
2019-05-19T02:33:45.703Z,14.26
2019-05-19T02:34:45.734Z,14.28
2019-05-19T02:35:45.757Z,14.27
2019-05-19T02:36:45.784Z,14.20
2019-05-19T02:37:45.814Z,14.20
2019-05-19T02:38:45.847Z,14.19
2019-05-19T02:39:45.866Z,14.28
2019-05-19T02:40:45.893Z,14.13
2019-05-19T02:41:45.925Z,14.27
2019-05-19T02:42:45.951Z,14.24
2019-05-19T02:43:45.983Z,14.26
2019-05-19T02:44:46.004Z,14.27
2019-05-19T02:45:46.041Z,14.23
2019-05-19T02:46:46.064Z,14.23
2019-05-19T02:47:46.092Z,14.19
2019-05-19T02:48:46.114Z,14.27
2019-05-19T02:49:46.138Z,14.21
2019-05-19T02:50:52.484Z,14.23
2019-05-19T02:51:46.192Z,14.19
2019-05-19T02:52:46.221Z,14.19
2019-05-19T02:53:46.251Z,14.21
2019-05-19T02:54:46.275Z,14.21
2019-05-19T02:55:46.307Z,14.23
2019-05-19T02:56:46.335Z,14.20
2019-05-19T02:57:46.370Z,14.23
2019-05-19T02:58:46.387Z,14.24
2019-05-19T02:59:46.413Z,14.28
2019-05-19T03:00:46.437Z,14.20
2019-05-19T03:01:46.466Z,14.21
2019-05-19T03:02:46.495Z,14.21
2019-05-19T03:03:46.536Z,14.21
2019-05-19T03:04:46.546Z,14.20
2019-05-19T03:05:46.581Z,14.20
2019-05-19T03:06:46.605Z,14.23
2019-05-19T03:07:46.633Z,14.15
2019-05-19T03:08:46.666Z,14.15
2019-05-19T03:09:46.688Z,14.16
2019-05-19T03:10:46.722Z,14.26
2019-05-19T03:11:46.737Z,14.09
2019-05-19T03:12:46.766Z,14.20
2019-05-19T03:13:46.797Z,14.21
2019-05-19T03:14:46.821Z,14.12
2019-05-19T03:15:46.846Z,14.13
2019-05-19T03:16:46.875Z,14.16
2019-05-19T03:17:46.906Z,14.19
2019-05-19T03:18:46.934Z,14.02
2019-05-19T03:19:46.957Z,14.15
2019-05-19T03:20:46.983Z,14.06
2019-05-19T03:21:47.011Z,14.15
2019-05-19T03:22:47.051Z,14.13
2019-05-19T03:23:47.067Z,14.19
2019-05-19T03:24:47.092Z,14.13
2019-05-19T03:25:47.121Z,14.11
2019-05-19T03:26:47.149Z,14.16
2019-05-19T03:27:47.173Z,14.11
2019-05-19T03:28:47.201Z,14.16
2019-05-19T03:29:47.228Z,14.20
2019-05-19T03:30:47.265Z,14.15
2019-05-19T03:31:47.283Z,14.19
2019-05-19T03:32:47.312Z,14.13
2019-05-19T03:33:47.337Z,14.20
2019-05-19T03:34:47.375Z,14.15
2019-05-19T03:35:47.398Z,14.11
2019-05-19T03:36:47.422Z,14.09
2019-05-19T03:37:47.447Z,14.11
2019-05-19T03:38:47.475Z,14.19
2019-05-19T03:39:47.508Z,14.09
2019-05-19T03:40:47.529Z,14.08
2019-05-19T03:41:47.562Z,14.12
2019-05-19T03:42:47.584Z,14.16
2019-05-19T03:43:47.612Z,14.23
2019-05-19T03:44:47.639Z,14.19
2019-05-19T03:45:47.670Z,14.16
2019-05-19T03:46:47.699Z,14.15
2019-05-19T03:47:47.727Z,14.09
2019-05-19T03:48:47.753Z,14.13
2019-05-19T03:49:47.774Z,14.11
2019-05-19T03:50:47.801Z,14.12
2019-05-19T03:51:47.829Z,14.23
2019-05-19T03:52:47.856Z,14.15
2019-05-19T03:53:47.895Z,14.27
2019-05-19T03:54:47.963Z,14.16
2019-05-19T03:55:47.934Z,14.20
2019-05-19T03:56:47.971Z,14.15
2019-05-19T03:57:47.991Z,14.23
2019-05-19T03:58:48.026Z,14.20
2019-05-19T03:59:48.046Z,14.16
2019-05-19T04:00:48.074Z,14.20
2019-05-19T04:01:48.102Z,14.16
2019-05-19T04:02:48.140Z,14.28
2019-05-19T04:03:48.154Z,14.24
2019-05-19T04:04:48.182Z,14.23
2019-05-19T04:05:48.215Z,14.23
2019-05-19T04:06:48.237Z,14.21
2019-05-19T04:07:48.266Z,14.27
2019-05-19T04:08:48.289Z,14.21
2019-05-19T04:09:48.317Z,14.23
2019-05-19T04:10:48.342Z,14.21
2019-05-19T04:11:48.369Z,14.23
2019-05-19T04:12:48.403Z,14.30
2019-05-19T04:13:48.425Z,14.26
2019-05-19T04:14:48.457Z,14.24
2019-05-19T04:15:48.481Z,14.28
2019-05-19T04:16:48.521Z,14.27
2019-05-19T04:17:48.534Z,14.33
2019-05-19T04:18:48.561Z,14.23
2019-05-19T04:19:48.585Z,14.28
2019-05-19T04:20:48.613Z,14.27
2019-05-19T04:21:49.746Z,14.13
2019-05-19T04:22:48.669Z,14.28
2019-05-19T04:23:48.706Z,14.23
2019-05-19T04:24:48.727Z,14.27
2019-05-19T04:25:48.756Z,14.30
2019-05-19T04:26:48.778Z,14.26
2019-05-19T04:27:48.804Z,14.31
2019-05-19T04:28:48.833Z,14.30
2019-05-19T04:29:48.861Z,14.24
2019-05-19T04:30:48.888Z,14.26
2019-05-19T04:31:48.918Z,14.24
2019-05-19T04:32:48.940Z,14.30
2019-05-19T04:33:48.974Z,14.30
2019-05-19T04:34:48.997Z,14.28
2019-05-19T04:35:49.021Z,14.33
2019-05-19T04:36:49.048Z,14.44
2019-05-19T04:37:49.086Z,14.39
2019-05-19T04:38:49.110Z,14.49
2019-05-19T04:39:49.130Z,14.45
2019-05-19T04:40:49.159Z,14.44
2019-05-19T04:41:49.186Z,14.45
2019-05-19T04:42:49.214Z,14.48
2019-05-19T04:43:49.239Z,14.49
2019-05-19T04:44:49.267Z,14.53
2019-05-19T04:45:49.300Z,14.60
2019-05-19T04:46:49.325Z,14.59
2019-05-19T04:47:49.348Z,14.63
2019-05-19T04:48:49.375Z,14.67
2019-05-19T04:49:49.412Z,14.71
2019-05-19T04:50:49.432Z,14.77
2019-05-19T04:52:06.100Z,14.82
2019-05-19T04:52:49.483Z,14.79
2019-05-19T04:53:49.510Z,14.82
2019-05-19T04:54:49.539Z,14.97
2019-05-19T04:55:49.563Z,14.89
2019-05-19T04:56:49.595Z,14.95
2019-05-19T04:57:49.627Z,14.97
2019-05-19T04:58:49.647Z,15.07
2019-05-19T04:59:49.679Z,14.93
2019-05-19T05:00:49.703Z,15.02
2019-05-19T05:01:49.729Z,15.05
2019-05-19T05:02:49.757Z,15.15
2019-05-19T05:03:49.790Z,15.15
2019-05-19T05:04:49.809Z,15.07
2019-05-19T05:05:49.844Z,15.16
2019-05-19T05:07:57.470Z,15.08
2019-05-19T05:08:57.499Z,15.15
2019-05-19T05:09:57.532Z,15.15
2019-05-19T05:10:57.560Z,15.13
2019-05-19T05:11:57.584Z,15.26
2019-05-19T05:12:57.608Z,15.30
2019-05-19T05:13:57.637Z,15.37
2019-05-19T05:14:57.665Z,15.43
2019-05-19T05:15:57.705Z,15.49
2019-05-19T05:16:57.722Z,15.55
2019-05-19T05:17:57.746Z,15.63
2019-05-19T05:18:57.776Z,15.70
2019-05-19T05:19:57.800Z,15.73
2019-05-19T05:20:57.829Z,15.80
2019-05-19T05:21:57.858Z,15.95
2019-05-19T05:22:57.885Z,16.06
2019-05-19T05:23:57.917Z,16.06
2019-05-19T05:24:57.946Z,16.13
2019-05-19T05:25:57.970Z,16.11
2019-05-19T05:26:57.994Z,16.17
2019-05-19T05:27:58.031Z,16.32
2019-05-19T05:28:58.051Z,16.40
2019-05-19T05:29:58.079Z,16.52
2019-05-19T05:30:58.108Z,16.59
2019-05-19T05:31:58.133Z,16.63
2019-05-19T05:32:58.161Z,16.55
2019-05-19T05:33:58.192Z,16.58
2019-05-19T05:34:58.220Z,16.57
2019-05-19T05:35:58.258Z,16.62
2019-05-19T05:36:58.276Z,16.65
2019-05-19T05:37:58.307Z,16.67
2019-05-19T05:38:58.330Z,16.63
2019-05-19T05:39:58.361Z,16.77
2019-05-19T05:40:58.385Z,16.81
2019-05-19T05:41:58.416Z,16.90
2019-05-19T05:42:58.462Z,16.87
2019-05-19T05:43:58.469Z,16.88
2019-05-19T05:44:58.507Z,16.90
2019-05-19T05:45:58.527Z,16.95
2019-05-19T05:46:58.562Z,16.92
2019-05-19T05:47:58.590Z,16.91
2019-05-19T05:48:58.612Z,16.92
2019-05-19T05:49:58.641Z,16.94
2019-05-19T05:50:58.671Z,17.12
2019-05-19T05:51:58.696Z,17.06
2019-05-19T05:52:58.727Z,17.17
2019-05-19T05:53:58.756Z,17.22
2019-05-19T05:54:58.780Z,17.43
2019-05-19T05:55:58.811Z,17.42
2019-05-19T05:56:58.839Z,17.58
2019-05-19T05:57:58.867Z,17.71
2019-05-19T05:58:58.895Z,17.79
2019-05-19T05:59:58.925Z,17.86
2019-05-19T06:00:58.952Z,17.84
2019-05-19T06:01:58.984Z,18.02
2019-05-19T06:02:59.017Z,17.94
2019-05-19T06:03:59.040Z,18.05
2019-05-19T06:04:59.077Z,18.10
2019-05-19T06:05:59.096Z,18.23
2019-05-19T06:06:59.136Z,18.20
2019-05-19T06:07:59.155Z,18.19
2019-05-19T06:08:59.183Z,18.19
2019-05-19T06:09:59.210Z,18.24
2019-05-19T06:10:59.238Z,18.26
2019-05-19T06:11:59.267Z,18.26
2019-05-19T06:12:59.306Z,18.34
2019-05-19T06:13:59.325Z,18.44
2019-05-19T06:14:59.361Z,18.51
2019-05-19T06:15:59.384Z,18.54
2019-05-19T06:16:59.421Z,18.65
2019-05-19T06:17:59.442Z,18.89
2019-05-19T06:18:59.475Z,18.89
2019-05-19T06:19:59.501Z,19.07
2019-05-19T06:20:59.532Z,19.17
2019-05-19T06:21:59.557Z,19.31
2019-05-19T06:22:59.589Z,19.25
2019-05-19T06:23:59.618Z,19.23
2019-05-19T06:24:59.650Z,19.31
2019-05-19T06:25:59.690Z,19.45
2019-05-19T06:26:59.706Z,19.35
2019-05-19T06:27:59.734Z,19.50
2019-05-19T06:28:59.771Z,19.56
2019-05-19T06:29:59.798Z,19.70
2019-05-19T06:30:59.821Z,19.87
2019-05-19T06:31:59.854Z,20.15
2019-05-19T06:32:59.884Z,20.29
2019-05-19T06:33:59.913Z,20.41
2019-05-19T06:34:59.939Z,20.49
2019-05-19T06:35:59.970Z,20.68
2019-05-19T06:36:59.999Z,20.79
2019-05-19T06:38:00.032Z,21.01
2019-05-19T06:39:00.221Z,21.03
2019-05-19T06:40:00.098Z,21.08
2019-05-19T06:41:00.122Z,21.09
2019-05-19T06:42:00.180Z,21.19
2019-05-19T06:43:00.198Z,21.43
2019-05-19T06:44:03.217Z,21.51
2019-05-19T06:45:00.242Z,21.49
2019-05-19T06:46:00.275Z,21.51
2019-05-19T06:47:00.309Z,21.18
2019-05-19T06:48:00.338Z,20.98
2019-05-19T06:49:00.368Z,20.90
2019-05-19T06:50:00.403Z,20.64
2019-05-19T06:51:00.435Z,20.67
2019-05-19T06:52:00.457Z,20.48
2019-05-19T06:53:13.337Z,20.29
2019-05-19T06:54:00.520Z,20.29
2019-05-19T06:55:00.623Z,20.30
2019-05-19T06:56:00.582Z,20.25
2019-05-19T06:57:00.613Z,20.27
2019-05-19T06:58:00.648Z,20.48
2019-05-19T06:59:00.677Z,20.72
2019-05-19T07:00:00.708Z,20.86
2019-05-19T07:01:00.746Z,21.16
2019-05-19T07:02:00.769Z,21.41
2019-05-19T07:03:00.800Z,21.77
2019-05-19T07:04:00.833Z,21.78
2019-05-19T07:05:00.868Z,21.99
2019-05-19T07:06:00.898Z,21.85
2019-05-19T07:07:00.937Z,21.85
2019-05-19T07:08:00.958Z,21.89
2019-05-19T07:09:00.989Z,21.62
2019-05-19T07:10:01.021Z,21.30
2019-05-19T07:11:01.052Z,20.91
2019-05-19T07:12:01.089Z,20.72
2019-05-19T07:13:01.112Z,20.61
2019-05-19T07:14:03.052Z,20.58
2019-05-19T07:15:01.187Z,20.54
2019-05-19T07:16:01.232Z,20.41
2019-05-19T07:17:01.244Z,20.58
2019-05-19T07:18:01.279Z,20.44
2019-05-19T07:19:01.312Z,20.51
2019-05-19T07:20:01.343Z,20.44
2019-05-19T07:21:01.367Z,20.46
2019-05-19T07:22:01.398Z,20.46
2019-05-19T07:23:01.486Z,20.38
2019-05-19T07:24:01.461Z,20.42
2019-05-19T07:25:01.523Z,20.66
2019-05-19T07:26:01.532Z,20.71
2019-05-19T07:27:01.552Z,20.75
2019-05-19T07:28:01.585Z,20.79
2019-05-19T07:29:01.720Z,20.72
2019-05-19T07:30:01.648Z,20.75
2019-05-19T07:31:01.853Z,20.81
2019-05-19T07:32:01.837Z,20.91
2019-05-19T07:33:01.744Z,20.97
2019-05-19T07:34:01.806Z,21.08
2019-05-19T07:35:01.802Z,21.06
2019-05-19T07:36:01.834Z,21.12
2019-05-19T07:37:01.865Z,21.08
2019-05-19T07:38:01.943Z,20.96
2019-05-19T07:39:01.923Z,20.76
2019-05-19T07:40:01.969Z,20.71
2019-05-19T07:41:01.987Z,20.88
2019-05-19T07:42:02.025Z,20.96
2019-05-19T07:43:02.050Z,20.82
2019-05-19T07:44:02.087Z,20.61
2019-05-19T07:45:02.109Z,20.71
2019-05-19T07:46:02.147Z,20.44
2019-05-19T07:47:02.173Z,20.60
2019-05-19T07:48:02.206Z,20.72
2019-05-19T07:49:02.234Z,20.81
2019-05-19T07:50:02.271Z,20.83
2019-05-19T07:51:02.406Z,20.81
2019-05-19T07:52:02.336Z,20.74
2019-05-19T07:53:02.362Z,20.71
2019-05-19T07:54:02.392Z,20.72
2019-05-19T07:55:02.421Z,20.71
2019-05-19T07:56:02.449Z,20.64
2019-05-19T07:57:02.484Z,20.42
2019-05-19T07:58:02.517Z,20.56
2019-05-19T07:59:02.545Z,20.56
2019-05-19T08:00:02.808Z,20.54
2019-05-19T08:01:02.758Z,20.66
2019-05-19T08:02:02.635Z,20.74
2019-05-19T08:03:02.697Z,20.74
2019-05-19T08:04:02.694Z,20.91
2019-05-19T08:05:02.725Z,21.13
2019-05-19T08:06:03.141Z,21.19
2019-05-19T08:07:02.810Z,21.41
2019-05-19T08:08:02.820Z,21.76
2019-05-19T08:09:02.845Z,21.89
2019-05-19T08:10:02.877Z,22.14
2019-05-19T08:11:02.914Z,22.45
2019-05-19T08:12:02.940Z,22.36
2019-05-19T08:13:03.051Z,22.54
2019-05-19T08:14:03.001Z,22.67
2019-05-19T08:15:03.032Z,22.52
2019-05-19T08:16:03.060Z,22.85
2019-05-19T08:17:03.179Z,22.99
2019-05-19T08:18:03.147Z,23.26
2019-05-19T08:19:03.155Z,23.71
2019-05-19T08:20:03.192Z,23.57
2019-05-19T08:21:03.220Z,23.81
2019-05-19T08:22:03.252Z,23.93
2019-05-19T08:23:59.254Z,24.11
2019-05-19T08:24:45.868Z,24.46
2019-05-19T08:25:45.920Z,24.89
2019-05-19T08:26:45.930Z,25.15
2019-05-19T08:27:45.967Z,25.54
2019-05-19T08:28:45.998Z,25.62
2019-05-19T08:29:46.030Z,25.89
2019-05-19T08:30:46.123Z,25.09
2019-05-19T08:31:46.099Z,24.40
2019-05-19T08:32:46.130Z,24.02
2019-05-19T08:33:46.173Z,23.70
2019-05-19T08:34:46.200Z,24.02
2019-05-19T08:35:46.231Z,24.48
2019-05-19T08:36:46.267Z,24.92
2019-05-19T08:37:46.299Z,25.12
2019-05-19T08:38:46.332Z,25.29
2019-05-19T08:39:46.368Z,25.27
2019-05-19T08:40:46.415Z,25.22
2019-05-19T08:41:46.435Z,25.26
2019-05-19T08:42:46.466Z,25.27
2019-05-19T08:43:46.511Z,25.41
2019-05-19T08:44:46.538Z,25.26
2019-05-19T08:45:46.577Z,25.67
2019-05-19T08:46:47.624Z,25.91
2019-05-19T08:47:46.641Z,26.00
2019-05-19T08:48:46.674Z,26.24
2019-05-19T08:49:46.712Z,26.31
2019-05-19T08:50:46.746Z,26.23
2019-05-19T08:51:46.787Z,25.88
2019-05-19T08:52:46.817Z,25.48
2019-05-19T08:53:46.853Z,25.11
2019-05-19T08:54:49.510Z,24.90
2019-05-19T08:55:46.924Z,24.55
2019-05-19T08:56:46.955Z,24.22
2019-05-19T08:57:46.994Z,24.33
2019-05-19T08:58:47.054Z,24.22
2019-05-19T08:59:47.062Z,24.14
2019-05-19T09:00:47.103Z,24.03
2019-05-19T09:01:47.134Z,24.21
2019-05-19T09:02:47.175Z,24.22
2019-05-19T09:03:47.204Z,24.39
2019-05-19T09:04:47.237Z,24.92
2019-05-19T09:05:48.005Z,25.54
2019-05-19T09:06:47.319Z,25.66
2019-05-19T09:07:47.350Z,25.56
2019-05-19T09:08:47.381Z,26.09
2019-05-19T09:09:47.474Z,26.63
2019-05-19T09:10:47.446Z,27.08
2019-05-19T09:11:47.971Z,26.94
2019-05-19T09:12:47.516Z,27.16
2019-05-19T09:13:47.558Z,27.36
2019-05-19T09:14:47.585Z,27.55
2019-05-19T09:15:47.623Z,27.86
2019-05-19T09:16:47.656Z,28.08
2019-05-19T09:17:47.702Z,28.35
2019-05-19T09:18:47.735Z,28.18
2019-05-19T09:19:47.824Z,27.64
2019-05-19T09:20:47.803Z,27.19
2019-05-19T09:21:47.839Z,27.01
2019-05-19T09:22:47.899Z,27.01
2019-05-19T09:23:47.912Z,27.33
2019-05-19T09:24:47.945Z,26.96
2019-05-19T09:25:47.982Z,26.84
2019-05-19T09:26:48.016Z,26.90
2019-05-19T09:27:48.056Z,26.99
2019-05-19T09:29:35.845Z,26.94
2019-05-19T09:30:35.880Z,26.87
2019-05-19T09:31:35.920Z,27.23
2019-05-19T09:32:35.955Z,27.48
2019-05-19T09:33:39.225Z,28.01
2019-05-19T09:34:36.027Z,28.27
2019-05-19T09:35:36.064Z,28.64
2019-05-19T09:36:38.726Z,28.60
2019-05-19T09:37:36.143Z,28.46
2019-05-19T09:38:36.174Z,28.67
2019-05-19T09:39:36.220Z,28.73
2019-05-19T09:40:36.255Z,28.76
2019-05-19T09:42:36.645Z,28.91
2019-05-19T09:43:36.369Z,28.48
2019-05-19T09:44:36.401Z,27.55
2019-05-19T09:45:36.441Z,27.23
2019-05-19T09:46:36.474Z,27.11
2019-05-19T09:47:36.565Z,27.49
2019-05-19T09:48:36.549Z,28.20
2019-05-19T09:49:36.596Z,28.28
2019-05-19T09:50:36.677Z,28.72
2019-05-19T09:51:36.662Z,28.78
2019-05-19T09:52:36.705Z,28.26
2019-05-19T09:53:36.738Z,27.71
2019-05-19T09:54:44.615Z,26.71
2019-05-19T09:55:36.815Z,26.42
2019-05-19T09:56:36.854Z,26.87
2019-05-19T09:57:36.899Z,26.93
2019-05-19T09:58:36.932Z,27.45
2019-05-19T09:59:36.966Z,27.91
2019-05-19T10:00:38.014Z,27.74
2019-05-19T10:01:37.040Z,27.91
2019-05-19T10:02:37.076Z,27.84
2019-05-19T10:03:37.120Z,28.23
2019-05-19T10:04:37.158Z,27.90
2019-05-19T10:05:37.211Z,27.99
2019-05-19T10:06:37.301Z,28.17
2019-05-19T10:07:37.265Z,27.59
2019-05-19T10:08:37.314Z,27.30
2019-05-19T10:09:37.356Z,27.16
2019-05-19T10:10:37.376Z,26.81
2019-05-19T10:11:37.416Z,26.19
2019-05-19T10:12:37.457Z,26.47
2019-05-19T10:13:37.924Z,27.01
2019-05-19T10:14:37.529Z,27.08
2019-05-19T10:15:37.567Z,26.76
2019-05-19T10:16:37.604Z,26.42
2019-05-19T10:17:37.641Z,25.63
2019-05-19T10:18:37.675Z,25.52
2019-05-19T10:19:37.712Z,25.17
2019-05-19T10:20:37.748Z,25.12
2019-05-19T10:21:37.787Z,24.90
2019-05-19T10:22:37.873Z,25.07
2019-05-19T10:23:37.874Z,24.93
2019-05-19T10:24:37.904Z,24.97
2019-05-19T10:25:37.932Z,25.37
2019-05-19T10:26:37.967Z,25.78
2019-05-19T10:27:38.001Z,26.00
2019-05-19T10:28:38.050Z,26.20
2019-05-19T10:29:38.087Z,26.76
2019-05-19T10:30:38.108Z,27.21
2019-05-19T10:31:38.292Z,27.48
2019-05-19T10:32:38.187Z,27.45
2019-05-19T10:33:38.216Z,27.94
2019-05-19T10:34:38.264Z,28.46
2019-05-19T10:35:38.287Z,29.06
2019-05-19T10:36:38.332Z,28.60
2019-05-19T10:37:38.362Z,26.99
2019-05-19T10:38:38.406Z,26.44
2019-05-19T10:39:38.434Z,25.97
2019-05-19T10:40:38.474Z,25.38
2019-05-19T10:41:38.511Z,24.89
2019-05-19T10:42:38.542Z,24.56
2019-05-19T10:43:38.575Z,24.49
2019-05-19T10:44:38.615Z,24.45
2019-05-19T10:45:38.652Z,24.49
2019-05-19T10:46:38.687Z,24.55
2019-05-19T10:47:38.720Z,24.66
2019-05-19T10:48:38.756Z,24.63
2019-05-19T10:49:38.792Z,24.69
2019-05-19T10:50:38.832Z,24.92
2019-05-19T10:51:38.862Z,25.38
2019-05-19T10:52:38.897Z,25.96
2019-05-19T10:53:38.931Z,26.47
2019-05-19T10:54:38.965Z,27.18
2019-05-19T10:55:39.003Z,27.69
2019-05-19T10:56:39.034Z,27.89
2019-05-19T10:57:39.068Z,27.86
2019-05-19T10:58:39.101Z,28.46
2019-05-19T10:59:39.139Z,28.95
2019-05-19T11:00:39.173Z,28.91
2019-05-19T11:01:39.210Z,29.38
2019-05-19T11:02:39.249Z,29.50
2019-05-19T11:03:39.282Z,29.95
2019-05-19T11:04:39.315Z,30.25
2019-05-19T11:05:39.352Z,30.26
2019-05-19T11:06:39.385Z,30.40
2019-05-19T11:07:39.431Z,30.16
2019-05-19T11:08:39.467Z,29.82
2019-05-19T11:09:39.497Z,29.63
2019-05-19T11:10:39.531Z,29.89
2019-05-19T11:11:39.575Z,30.13
2019-05-19T11:12:39.612Z,29.81
2019-05-19T11:13:39.671Z,28.63
2019-05-19T11:14:39.687Z,27.76
2019-05-19T11:15:39.724Z,27.43
2019-05-19T11:16:39.758Z,27.12
2019-05-19T11:17:39.788Z,26.89
2019-05-19T11:18:39.825Z,26.61
2019-05-19T11:19:39.863Z,27.11
2019-05-19T11:20:39.904Z,26.89
2019-05-19T11:21:39.938Z,26.75
2019-05-19T11:22:39.981Z,26.63
2019-05-19T11:23:40.044Z,26.76
2019-05-19T11:24:40.048Z,26.57
2019-05-19T11:25:51.055Z,26.52
2019-05-19T11:26:40.120Z,26.45
2019-05-19T11:27:40.156Z,26.38
2019-05-19T11:28:40.193Z,26.44
2019-05-19T11:29:40.238Z,26.35
2019-05-19T11:30:40.271Z,26.20
2019-05-19T11:31:40.299Z,26.16
2019-05-19T11:32:40.338Z,26.20
2019-05-19T11:33:40.375Z,26.22
2019-05-19T11:34:40.405Z,26.20
2019-05-19T11:35:40.441Z,26.17
2019-05-19T11:36:40.477Z,26.04
2019-05-19T11:37:40.518Z,26.09
2019-05-19T11:38:40.550Z,25.97
2019-05-19T11:39:40.594Z,25.75
2019-05-19T11:40:40.626Z,25.52
2019-05-19T11:41:40.667Z,25.49
2019-05-19T11:42:40.690Z,25.39
2019-05-19T11:43:40.725Z,25.32
2019-05-19T11:44:40.767Z,25.34
2019-05-19T11:45:40.795Z,25.48
2019-05-19T11:46:40.827Z,25.57
2019-05-19T11:47:40.870Z,26.00
2019-05-19T11:48:40.901Z,26.01
2019-05-19T11:49:40.935Z,26.31
2019-05-19T11:50:42.152Z,26.84
2019-05-19T11:51:41.002Z,27.34
2019-05-19T11:52:41.037Z,27.65
2019-05-19T11:53:41.073Z,27.93
2019-05-19T11:54:41.109Z,28.20
2019-05-19T11:55:41.141Z,28.30
2019-05-19T11:56:41.174Z,28.12
2019-05-19T11:57:41.210Z,27.83
2019-05-19T11:58:41.242Z,27.69
2019-05-19T11:59:41.278Z,27.55
2019-05-19T12:00:41.314Z,27.18
2019-05-19T12:01:41.348Z,26.84
2019-05-19T12:02:41.381Z,26.64
2019-05-19T12:03:41.418Z,26.45
2019-05-19T12:04:41.453Z,26.24
2019-05-19T12:05:41.491Z,26.17
2019-05-19T12:06:41.517Z,26.34
2019-05-19T12:07:41.562Z,26.03
2019-05-19T12:08:41.590Z,25.99
2019-05-19T12:09:41.624Z,25.99
2019-05-19T12:10:41.657Z,25.97
2019-05-19T12:11:41.698Z,25.99
2019-05-19T12:12:41.735Z,26.01
2019-05-19T12:13:41.769Z,25.75
2019-05-19T12:14:41.795Z,25.74
2019-05-19T12:15:41.830Z,25.86
2019-05-19T12:16:42.063Z,26.63
2019-05-19T12:17:41.895Z,27.16
2019-05-19T12:18:41.928Z,27.08
2019-05-19T12:19:41.964Z,27.31
2019-05-19T12:20:42.004Z,27.96
2019-05-19T12:21:42.033Z,28.42
2019-05-19T12:22:42.064Z,28.94
2019-05-19T12:23:42.102Z,29.33
2019-05-19T12:24:42.151Z,29.66
2019-05-19T12:25:42.170Z,29.79
2019-05-19T12:26:42.204Z,29.84
2019-05-19T12:27:42.238Z,29.87
2019-05-19T12:28:42.275Z,29.81
2019-05-19T12:29:42.306Z,28.92
2019-05-19T12:30:42.342Z,28.30
2019-05-19T12:31:42.378Z,28.88
2019-05-19T12:32:42.492Z,29.20
2019-05-19T12:33:51.535Z,29.30
2019-05-19T12:34:42.485Z,28.94
2019-05-19T12:35:42.519Z,28.67
2019-05-19T12:36:42.552Z,28.38
2019-05-19T12:37:42.588Z,28.12
2019-05-19T12:38:42.625Z,28.02
2019-05-19T12:39:42.661Z,28.14
2019-05-19T12:40:42.692Z,27.68
2019-05-19T12:41:42.728Z,27.34
2019-05-19T12:42:42.766Z,27.09
2019-05-19T12:43:42.800Z,26.86
2019-05-19T12:44:42.840Z,26.56
2019-05-19T12:45:42.895Z,26.47
2019-05-19T12:46:42.908Z,26.38
2019-05-19T12:47:42.941Z,26.42
2019-05-19T12:48:42.982Z,26.27
2019-05-19T12:49:43.008Z,26.59
2019-05-19T12:50:43.042Z,27.21
2019-05-19T12:51:43.078Z,27.69
2019-05-19T12:52:43.111Z,27.96
2019-05-19T12:53:43.146Z,28.16
2019-05-19T12:54:43.186Z,27.94
2019-05-19T12:55:43.218Z,27.59
2019-05-19T12:56:43.250Z,27.09
2019-05-19T12:57:43.283Z,26.76
2019-05-19T12:58:43.320Z,26.72